Bruce, Florida
Current Conditions -  °F | °C
As of 4:35 PM on Sunday 23 Nov 2014 (Local Time) from K54J Reporting Station
Moderate Rain Moderate Rain  
Wind Chill: 64°   Ceiling: 400
Heat Index: 64°   Visibility: 4mi
Dew Point: 64°   Wind: 9mph
Humidity: 99%   Direction: 200°SSW
Pressure: 29.75"   Gusts: 17mph
Location:  30.678°N, 85.9545°W
Report Text: K54J 232235Z AUTO 20008G15KT 170V230 4SM RA OVC004 18/18 A2975 RMK AO2 T01760175
Loading
Personal Weather Stations






























Interactive Weather Map New forecast layout! Learn more

10-Day Weather Forecast

Advertisements
Track Severe Weather on mobile